Time;durP1;ratioP1;P1;durP2;ratioP2;P2;SDS_P1;SDS_P2;PMS_P1;PMS_P2;Temp;Humidity;BMP_temperature;BMP_pressure;BME280_temperature;BME280_humidity;BME280_pressure;Samples;Min_cycle;Max_cycle;Signal;HPM_P1;HPM_P2
2021/11/29 00:01:38;;;;;;;27.50;15.70;;;0.70;99.90;;;;;;2602940;54;20026;31
2021/11/29 00:09:43;;;;;;;33.42;17.52;;;0.80;99.90;;;;;;2602894;54;20956;31
2021/11/29 00:12:19;;;;;;;31.75;17.95;;;0.80;99.90;;;;;;2602895;54;20030;31
2021/11/29 00:14:55;;;;;;;35.40;19.15;;;0.80;99.90;;;;;;2620296;47;20100;31
2021/11/29 00:17:39;;;;;;;33.15;19.25;;;0.80;99.90;;;;;;2601944;54;20982;31
2021/11/29 00:20:22;;;;;;;29.77;17.85;;;0.80;99.90;;;;;;2602084;54;20865;31
2021/11/29 00:23:01;;;;;;;32.83;18.75;;;0.80;99.90;;;;;;2603584;54;20027;31
2021/11/29 00:25:36;;;;;;;33.83;19.98;;;0.80;99.90;;;;;;2603504;54;20023;31
2021/11/29 00:28:13;;;;;;;39.27;20.20;;;0.90;99.90;;;;;;2603476;54;20736;31
2021/11/29 00:30:50;;;;;;;32.45;19.30;;;0.80;99.90;;;;;;2603231;54;20060;31
2021/11/29 00:33:24;;;;;;;36.55;19.45;;;0.90;99.90;;;;;;2603482;54;20092;31
2021/11/29 00:36:02;;;;;;;36.20;21.45;;;0.90;99.90;;;;;;2622104;46;20461;31
2021/11/29 00:38:44;;;;;;;36.10;20.75;;;0.90;99.90;;;;;;2621720;46;20022;31
2021/11/29 00:41:18;;;;;;;34.63;20.13;;;1.00;99.90;;;;;;2603570;54;20469;31
2021/11/29 00:43:55;;;;;;;37.35;21.77;;;0.90;99.90;;;;;;2603318;54;20026;31
2021/11/29 00:46:35;;;;;;;35.67;22.08;;;0.90;99.90;;;;;;2603479;54;20770;31
2021/11/29 00:49:11;;;;;;;40.08;22.13;;;1.00;99.90;;;;;;2603351;54;20042;31
2021/11/29 00:51:48;;;;;;;37.42;22.40;;;0.80;99.90;;;;;;2602606;54;20872;31
2021/11/29 00:54:27;;;;;;;33.92;21.25;;;0.90;99.90;;;;;;2621576;46;20090;31
2021/11/29 00:57:06;;;;;;;40.20;23.27;;;0.90;99.90;;;;;;2603497;54;20979;31
2021/11/29 00:59:46;;;;;;;37.95;22.85;;;0.90;99.90;;;;;;2720212;39;20546;31
2021/11/29 01:02:22;;;;;;;42.55;25.25;;;0.80;99.90;;;;;;2603513;54;20874;31
2021/11/29 01:04:59;;;;;;;49.40;24.40;;;0.90;99.90;;;;;;2701885;39;20480;31
2021/11/29 01:07:33;;;;;;;40.23;23.53;;;0.90;99.90;;;;;;2603225;54;20581;31
2021/11/29 01:10:15;;;;;;;41.75;23.20;;;0.90;99.90;;;;;;2603416;54;20247;31
2021/11/29 01:12:52;;;;;;;38.28;21.75;;;0.90;99.90;;;;;;2603294;54;20633;31
2021/11/29 01:15:35;;;;;;;41.30;23.00;;;0.90;99.90;;;;;;2602684;54;20048;31
2021/11/29 01:18:11;;;;;;;33.42;21.50;;;0.90;99.90;;;;;;2602557;54;20069;31
2021/11/29 01:20:52;;;;;;;44.13;23.80;;;0.80;99.90;;;;;;2603448;54;20104;31
2021/11/29 01:23:29;;;;;;;42.20;22.60;;;0.90;99.90;;;;;;2603377;54;20052;31
2021/11/29 01:26:14;;;;;;;38.15;22.90;;;0.90;99.90;;;;;;2603136;54;20075;31
2021/11/29 01:28:50;;;;;;;41.28;23.52;;;0.80;99.90;;;;;;2607453;46;20033;31
2021/11/29 01:31:26;;;;;;;41.85;25.02;;;0.90;99.90;;;;;;2701689;39;20471;31
2021/11/29 01:34:02;;;;;;;43.15;23.98;;;0.80;99.90;;;;;;2603170;54;20879;31
2021/11/29 01:36:37;;;;;;;43.77;24.93;;;0.80;99.90;;;;;;2603202;54;20052;31
2021/11/29 01:39:16;;;;;;;46.50;25.27;;;0.80;99.90;;;;;;2603075;54;20026;31
2021/11/29 01:41:59;;;;;;;44.58;23.20;;;0.80;99.90;;;;;;2621168;46;19934;31
2021/11/29 01:44:35;;;;;;;44.40;23.50;;;0.80;99.90;;;;;;2621604;46;20026;31
2021/11/29 01:47:10;;;;;;;46.03;24.20;;;0.80;99.90;;;;;;2701935;39;22409;31
2021/11/29 01:49:49;;;;;;;41.00;22.27;;;0.80;99.90;;;;;;2603257;54;20851;31
2021/11/29 01:52:24;;;;;;;40.20;23.77;;;0.90;99.90;;;;;;2602691;54;20738;31
2021/11/29 01:55:00;;;;;;;43.65;23.15;;;0.80;99.90;;;;;;2602114;54;20254;31
2021/11/29 01:57:38;;;;;;;41.80;22.90;;;0.80;99.90;;;;;;2618046;46;20881;31
2021/11/29 02:00:17;;;;;;;44.33;24.73;;;0.80;99.90;;;;;;2602342;54;20042;31
2021/11/29 02:02:55;;;;;;;52.10;25.25;;;0.80;99.90;;;;;;2602424;54;20034;31
2021/11/29 02:05:31;;;;;;;49.40;27.10;;;0.80;99.90;;;;;;2602474;54;20560;31
2021/11/29 02:08:09;;;;;;;52.00;25.63;;;0.70;99.90;;;;;;2603243;54;20026;31
2021/11/29 02:10:46;;;;;;;49.10;25.83;;;0.80;99.90;;;;;;2602662;54;19949;31
2021/11/29 02:13:27;;;;;;;47.90;24.90;;;0.80;99.90;;;;;;2615500;46;20105;31
2021/11/29 02:16:03;;;;;;;44.53;25.48;;;0.80;99.90;;;;;;2602395;54;21893;31
2021/11/29 02:18:40;;;;;;;48.35;26.15;;;0.80;99.90;;;;;;2602615;54;20921;31
2021/11/29 02:21:26;;;;;;;48.28;25.15;;;0.80;99.90;;;;;;2602805;54;20027;31
2021/11/29 02:26:40;;;;;;;48.25;26.15;;;0.80;99.90;;;;;;2603228;54;20989;31
2021/11/29 02:29:16;;;;;;;54.03;25.73;;;0.70;99.90;;;;;;2607731;46;20084;31
2021/11/29 02:31:55;;;;;;;51.17;25.38;;;0.80;99.90;;;;;;2603254;54;20054;31
2021/11/29 02:34:33;;;;;;;49.17;26.67;;;0.70;99.90;;;;;;2606060;46;20870;31
2021/11/29 02:37:13;;;;;;;45.55;24.98;;;0.70;99.90;;;;;;2603352;54;21069;31
2021/11/29 02:39:52;;;;;;;54.58;28.17;;;0.70;99.90;;;;;;2603034;54;20922;31
2021/11/29 02:42:28;;;;;;;45.27;24.73;;;0.80;99.90;;;;;;2602314;54;19938;31
2021/11/29 02:45:05;;;;;;;50.50;26.73;;;0.70;99.90;;;;;;2601983;54;20034;31
2021/11/29 02:47:41;;;;;;;48.30;25.20;;;0.70;99.90;;;;;;2603014;54;20904;31
2021/11/29 02:50:20;;;;;;;48.33;25.27;;;0.70;99.90;;;;;;2701580;39;20515;31
2021/11/29 02:52:54;;;;;;;47.75;25.50;;;0.70;99.90;;;;;;2602819;54;20026;31
2021/11/29 02:55:38;;;;;;;52.05;26.77;;;0.70;99.90;;;;;;2602972;54;20960;31
2021/11/29 02:58:13;;;;;;;51.35;26.77;;;0.70;99.90;;;;;;2602923;54;20553;31
2021/11/29 03:00:56;;;;;;;48.20;25.33;;;0.70;99.90;;;;;;2603087;54;20031;31
2021/11/29 03:03:46;;;;;;;47.05;25.33;;;0.80;99.90;;;;;;2602160;54;20049;31
2021/11/29 03:06:24;;;;;;;48.30;25.63;;;0.80;99.90;;;;;;2602260;54;20035;31
2021/11/29 03:08:59;;;;;;;48.53;25.87;;;0.80;99.90;;;;;;2602084;54;20030;31
2021/11/29 03:11:39;;;;;;;50.92;27.15;;;0.80;99.90;;;;;;2601800;54;20927;31
2021/11/29 03:14:16;;;;;;;51.00;27.58;;;0.70;99.90;;;;;;2601742;54;20858;31
2021/11/29 03:16:52;;;;;;;;;;;0.70;99.90;;;;;;2603169;54;20728;31
2021/11/29 03:19:32;;;;;;;45.88;24.02;;;0.80;99.90;;;;;;2621539;46;20798;31
2021/11/29 03:22:10;;;;;;;42.13;23.67;;;0.70;99.90;;;;;;2602986;54;20116;31
2021/11/29 03:24:46;;;;;;;47.72;25.10;;;0.70;99.90;;;;;;2602148;54;22013;31
2021/11/29 03:27:33;;;;;;;45.22;23.45;;;0.70;99.90;;;;;;2603033;54;20862;31
2021/11/29 03:30:20;;;;;;;50.75;25.33;;;0.70;99.90;;;;;;2603013;54;20825;31
2021/11/29 03:32:56;;;;;;;49.23;25.20;;;0.70;99.90;;;;;;2621404;46;20034;31
2021/11/29 03:35:35;;;;;;;46.00;24.77;;;0.70;99.90;;;;;;2602864;54;20864;31
2021/11/29 03:38:12;;;;;;;46.30;25.42;;;0.70;99.90;;;;;;2602073;54;20018;31
2021/11/29 03:40:49;;;;;;;49.25;24.33;;;0.70;99.90;;;;;;2602019;54;20103;31
2021/11/29 03:43:29;;;;;;;50.55;25.35;;;0.70;99.90;;;;;;2614886;46;20026;31
2021/11/29 03:46:08;;;;;;;44.05;24.05;;;0.70;99.90;;;;;;2602645;54;20582;31
2021/11/29 03:48:48;;;;;;;55.47;24.87;;;0.60;99.90;;;;;;2621028;46;20834;31
2021/11/29 03:51:25;;;;;;;57.33;24.13;;;0.70;99.90;;;;;;2621085;46;20971;31
2021/11/29 03:54:02;;;;;;;50.92;26.42;;;0.70;99.90;;;;;;2602759;54;20030;31
2021/11/29 03:56:40;;;;;;;44.30;23.80;;;0.70;99.90;;;;;;2622520;47;20057;31
2021/11/29 03:59:23;;;;;;;46.65;26.35;;;0.60;99.90;;;;;;2604673;54;21605;31
2021/11/29 04:02:01;;;;;;;53.25;25.45;;;0.60;99.90;;;;;;2604486;54;21413;31
2021/11/29 04:04:42;;;;;;;51.90;24.88;;;0.60;99.90;;;;;;2613656;46;20029;31
2021/11/29 04:07:17;;;;;;;64.47;25.77;;;0.60;99.90;;;;;;2603632;54;20030;31
2021/11/29 04:09:58;;;;;;;44.78;25.25;;;0.60;99.90;;;;;;2604516;54;20813;31
2021/11/29 04:12:32;;;;;;;48.15;23.02;;;0.70;99.90;;;;;;2604651;54;20026;31
2021/11/29 04:15:16;;;;;;;52.03;25.80;;;0.60;99.90;;;;;;2622965;46;20030;31
2021/11/29 04:17:54;;;;;;;43.20;22.60;;;0.60;99.90;;;;;;2604472;54;19941;31
2021/11/29 04:20:27;;;;;;;46.80;23.20;;;0.60;99.90;;;;;;2622822;46;22413;31
2021/11/29 04:23:04;;;;;;;47.05;22.40;;;0.60;99.90;;;;;;2622842;46;20027;31
2021/11/29 04:25:47;;;;;;;49.67;22.27;;;0.60;99.90;;;;;;2604367;54;20747;31
2021/11/29 04:28:26;;;;;;;44.70;22.15;;;0.60;99.90;;;;;;2604400;54;20273;31
2021/11/29 04:33:37;;;;;;;40.80;21.80;;;0.60;99.90;;;;;;2622754;46;20056;31
2021/11/29 04:36:18;;;;;;;43.40;22.20;;;0.70;99.90;;;;;;2604343;54;20026;31
2021/11/29 04:38:56;;;;;;;47.03;23.17;;;0.60;99.90;;;;;;2622943;46;20876;31
2021/11/29 04:41:32;;;;;;;43.80;20.60;;;0.60;99.90;;;;;;2604270;54;20903;31
2021/11/29 04:44:07;;;;;;;47.35;23.80;;;0.60;99.90;;;;;;2604188;54;20074;31
2021/11/29 04:46:47;;;;;;;48.05;23.23;;;0.60;99.90;;;;;;2604260;54;20100;31
2021/11/29 04:49:30;;;;;;;47.25;22.73;;;0.60;99.90;;;;;;2622983;46;20031;31
2021/11/29 04:52:06;;;;;;;49.00;23.70;;;0.60;99.90;;;;;;2604429;54;20144;31
2021/11/29 04:54:41;;;;;;;51.40;24.13;;;0.60;99.90;;;;;;2604367;54;20886;31
2021/11/29 04:57:20;;;;;;;48.03;24.37;;;0.60;99.90;;;;;;2604308;54;20033;31
2021/11/29 04:59:57;;;;;;;50.40;24.50;;;0.50;99.90;;;;;;2604447;54;20285;31
2021/11/29 05:02:31;;;;;;;44.05;23.17;;;0.60;99.90;;;;;;2702970;39;20392;31
2021/11/29 05:05:12;;;;;;;43.83;22.87;;;0.60;99.90;;;;;;2603909;54;20805;31
2021/11/29 05:07:53;;;;;;;46.83;22.00;;;0.50;99.90;;;;;;2603337;54;20105;31
2021/11/29 05:10:31;;;;;;;48.83;22.63;;;0.50;99.90;;;;;;2603196;54;20074;31
2021/11/29 05:13:07;;;;;;;44.67;23.10;;;0.50;99.90;;;;;;2603403;54;20053;31
2021/11/29 05:15:42;;;;;;;45.28;23.17;;;0.50;99.90;;;;;;2603107;54;20034;31
2021/11/29 05:18:24;;;;;;;47.30;22.25;;;0.50;99.90;;;;;;2615121;46;20884;31
2021/11/29 05:21:05;;;;;;;46.75;23.25;;;0.50;99.90;;;;;;2602554;54;20927;31
2021/11/29 05:23:41;;;;;;;48.08;22.98;;;0.50;99.90;;;;;;2603453;54;20038;31
2021/11/29 05:26:22;;;;;;;40.60;22.42;;;0.50;99.90;;;;;;2603213;54;20031;31
2021/11/29 05:29:00;;;;;;;52.05;23.42;;;0.50;99.90;;;;;;2603269;54;20846;31
2021/11/29 05:31:39;;;;;;;44.27;22.40;;;0.40;99.90;;;;;;2701926;39;20559;31
2021/11/29 05:34:13;;;;;;;45.53;22.93;;;0.50;99.90;;;;;;2603343;54;22359;31
2021/11/29 05:36:55;;;;;;;52.15;25.52;;;0.40;99.90;;;;;;2603378;54;20242;31
2021/11/29 05:39:35;;;;;;;47.63;22.45;;;0.50;99.90;;;;;;2621704;46;20093;31
2021/11/29 05:42:11;;;;;;;48.60;23.05;;;0.40;99.90;;;;;;2603294;54;20033;31
2021/11/29 05:44:45;;;;;;;57.77;23.63;;;0.50;99.90;;;;;;2701841;39;21076;31
2021/11/29 05:47:21;;;;;;;49.43;23.13;;;0.40;99.90;;;;;;2603257;54;21146;31
2021/11/29 05:49:57;;;;;;;52.97;25.17;;;0.40;99.90;;;;;;2603226;54;20049;31
2021/11/29 05:52:38;;;;;;;57.03;22.90;;;0.40;99.90;;;;;;2603298;54;20903;31
2021/11/29 05:55:18;;;;;;;54.10;24.30;;;0.40;99.90;;;;;;2602455;54;19938;31
2021/11/29 05:57:54;;;;;;;49.65;23.25;;;0.40;99.90;;;;;;2603224;54;20030;31
2021/11/29 06:00:32;;;;;;;52.47;24.23;;;0.40;99.90;;;;;;2603228;54;20046;31
2021/11/29 06:03:10;;;;;;;56.38;25.25;;;0.50;99.90;;;;;;2603044;54;20104;31
2021/11/29 06:05:49;;;;;;;58.45;25.63;;;0.50;99.90;;;;;;2621302;46;19997;31
2021/11/29 06:08:46;;;;;;;50.33;23.30;;;0.50;99.90;;;;;;2613256;46;20101;31
2021/11/29 06:11:26;;;;;;;38.63;21.38;;;0.50;99.90;;;;;;2603185;54;20033;31
2021/11/29 06:14:02;;;;;;;46.42;22.70;;;0.50;99.90;;;;;;2603116;54;20026;31
2021/11/29 06:16:38;;;;;;;46.40;24.35;;;0.40;99.90;;;;;;2621447;46;20030;31
2021/11/29 06:19:16;;;;;;;51.17;22.83;;;0.40;99.90;;;;;;2602947;54;20038;31
2021/11/29 06:21:52;;;;;;;48.60;23.10;;;0.40;99.90;;;;;;2603238;54;20026;31
2021/11/29 06:24:31;;;;;;;43.03;20.77;;;0.40;99.90;;;;;;2603054;54;20899;31
2021/11/29 06:27:12;;;;;;;43.85;21.20;;;0.40;99.90;;;;;;2621409;46;20847;31
2021/11/29 06:29:47;;;;;;;44.40;23.20;;;0.40;99.90;;;;;;2603066;54;20884;31
2021/11/29 06:32:24;;;;;;;54.60;24.80;;;0.40;99.90;;;;;;2701626;39;21403;31
2021/11/29 06:35:05;;;;;;;48.15;22.10;;;0.30;99.90;;;;;;2602958;54;20045;31
2021/11/29 06:37:42;;;;;;;46.08;23.17;;;0.40;99.90;;;;;;2603180;54;20050;31
2021/11/29 06:40:18;;;;;;;52.95;23.73;;;0.40;99.90;;;;;;2603010;54;21506;31
2021/11/29 06:43:02;;;;;;;43.95;23.50;;;0.30;99.90;;;;;;2602242;54;20026;31
2021/11/29 06:45:37;;;;;;;52.97;22.67;;;0.30;99.90;;;;;;2602134;54;20886;31
2021/11/29 06:48:17;;;;;;;47.75;23.40;;;0.30;99.90;;;;;;2602418;54;21002;31
2021/11/29 06:50:54;;;;;;;46.47;23.15;;;0.30;99.90;;;;;;2603005;54;20034;31
2021/11/29 06:53:33;;;;;;;44.60;22.95;;;0.40;99.90;;;;;;2602174;54;20049;31
2021/11/29 06:56:13;;;;;;;45.35;22.58;;;0.40;99.90;;;;;;2603152;54;20084;31
2021/11/29 06:58:55;;;;;;;46.22;22.38;;;0.40;99.90;;;;;;2602684;54;20842;31
2021/11/29 07:04:08;;;;;;;46.88;22.20;;;0.40;99.90;;;;;;2719862;39;20716;31
2021/11/29 07:06:48;;;;;;;44.35;22.83;;;0.40;99.90;;;;;;2602781;54;20713;31
2021/11/29 07:09:24;;;;;;;44.03;21.33;;;0.40;99.90;;;;;;2602983;54;20864;31
2021/11/29 07:12:01;;;;;;;41.67;18.75;;;0.40;99.90;;;;;;2603021;54;20031;31
2021/11/29 07:14:35;;;;;;;38.88;18.60;;;0.40;99.90;;;;;;2602927;54;20034;31
2021/11/29 07:17:18;;;;;;;28.60;14.80;;;0.40;99.90;;;;;;2621417;46;20037;31
2021/11/29 07:19:57;;;;;;;31.00;16.90;;;0.40;99.90;;;;;;2602989;54;20813;31
2021/11/29 07:22:31;;;;;;;35.00;18.00;;;0.40;99.90;;;;;;2701515;39;21363;31
2021/11/29 07:25:10;;;;;;;37.10;18.52;;;0.40;99.90;;;;;;2603018;54;20952;31
2021/11/29 07:27:48;;;;;;;31.30;16.35;;;0.40;99.90;;;;;;2602761;54;20936;31
2021/11/29 07:30:26;;;;;;;30.63;17.52;;;0.40;99.90;;;;;;2602784;54;20098;31
2021/11/29 07:33:02;;;;;;;30.17;16.80;;;0.40;99.90;;;;;;2602745;54;20034;31
2021/11/29 07:35:46;;;;;;;32.83;18.97;;;0.40;99.90;;;;;;2621355;46;20046;31
2021/11/29 07:38:34;;;;;;;35.50;20.65;;;0.40;99.90;;;;;;2602975;54;20031;31
2021/11/29 07:41:08;;;;;;;;;;;0.40;99.90;;;;;;2603208;54;22419;31
2021/11/29 07:43:52;;;;;;;31.10;16.60;;;0.40;99.90;;;;;;2602046;54;20843;31
2021/11/29 07:46:47;;;;;;;31.58;17.92;;;0.40;99.90;;;;;;2620814;46;21124;31
2021/11/29 07:49:30;;;;;;;31.98;16.98;;;0.40;99.90;;;;;;2621310;46;20105;31
2021/11/29 07:52:14;;;;;;;35.40;18.23;;;0.40;99.90;;;;;;2621037;46;20030;31
2021/11/29 07:55:11;;;;;;;35.08;19.08;;;0.40;99.90;;;;;;2603012;54;20904;31
2021/11/29 07:57:49;;;;;;;31.33;17.40;;;0.40;99.90;;;;;;2602924;54;20759;31
2021/11/29 08:00:32;;;;;;;36.28;18.75;;;0.40;99.90;;;;;;2602835;54;20762;31
2021/11/29 08:03:18;;;;;;;33.92;20.60;;;0.40;99.90;;;;;;2609408;47;20130;31
2021/11/29 08:05:56;;;;;;;41.20;21.10;;;0.40;99.90;;;;;;2602562;54;20089;31
2021/11/29 08:08:36;;;;;;;42.03;20.83;;;0.40;99.90;;;;;;2602581;54;20033;31
2021/11/29 08:11:15;;;;;;;38.60;20.15;;;0.40;99.90;;;;;;2602565;54;20026;31
2021/11/29 08:13:53;;;;;;;51.57;23.80;;;0.40;99.90;;;;;;2602660;54;20832;31
2021/11/29 08:16:35;;;;;;;40.67;20.38;;;0.30;99.90;;;;;;2621113;47;20242;31
2021/11/29 08:19:11;;;;;;;36.25;19.02;;;0.30;99.90;;;;;;2602837;54;20026;31
2021/11/29 08:24:40;;;;;;;33.15;18.35;;;0.40;99.90;;;;;;2602795;54;20026;31
2021/11/29 08:27:19;;;;;;;33.53;17.63;;;0.40;99.90;;;;;;2602651;54;20736;31
2021/11/29 08:29:57;;;;;;;30.73;17.77;;;0.40;99.90;;;;;;2602446;54;20913;31
2021/11/29 08:32:35;;;;;;;30.38;17.38;;;0.40;99.90;;;;;;2621166;47;20245;31
2021/11/29 08:35:34;;;;;;;33.10;18.48;;;0.40;99.90;;;;;;2602438;54;20027;31
2021/11/29 08:38:11;;;;;;;31.23;16.83;;;0.50;99.90;;;;;;2602266;54;20027;31
2021/11/29 08:40:58;;;;;;;32.90;17.60;;;0.50;99.90;;;;;;2601723;54;20038;31
2021/11/29 08:43:38;;;;;;;30.60;17.45;;;0.50;99.90;;;;;;2602845;54;20050;31
2021/11/29 08:46:17;;;;;;;28.77;16.80;;;0.60;99.90;;;;;;2603317;54;20780;31
2021/11/29 08:49:07;;;;;;;31.27;17.70;;;0.60;99.90;;;;;;2603391;54;21052;31
2021/11/29 08:51:45;;;;;;;30.02;17.38;;;0.60;99.90;;;;;;2612337;46;20247;31
2021/11/29 08:54:40;;;;;;;32.40;18.77;;;0.60;99.90;;;;;;2602735;54;20130;31
2021/11/29 08:57:26;;;;;;;32.75;17.40;;;0.60;99.90;;;;;;2603365;54;19941;31
2021/11/29 09:00:00;;;;;;;31.70;17.48;;;0.70;99.90;;;;;;2603305;54;20873;31
2021/11/29 09:02:40;;;;;;;34.63;18.33;;;0.70;99.90;;;;;;2603234;54;20031;31
2021/11/29 09:05:26;;;;;;;29.35;17.63;;;0.70;99.90;;;;;;2603369;54;20042;31
2021/11/29 09:08:07;;;;;;;39.53;19.70;;;0.80;99.90;;;;;;2621850;46;20997;31
2021/11/29 09:13:45;;;;;;;30.35;16.98;;;0.70;99.90;;;;;;2603435;54;20042;31
2021/11/29 09:16:21;;;;;;;37.75;19.55;;;0.70;99.90;;;;;;2603352;54;20026;31
2021/11/29 09:18:56;;;;;;;35.13;20.70;;;0.80;99.90;;;;;;2602977;54;20087;31
2021/11/29 09:21:38;;;;;;;37.63;21.73;;;0.80;99.90;;;;;;2603365;54;20894;31
2021/11/29 09:24:16;;;;;;;38.97;21.30;;;0.80;99.90;;;;;;2602563;54;20269;31
2021/11/29 09:26:51;;;;;;;44.90;21.80;;;0.90;99.90;;;;;;2615427;46;20030;31
2021/11/29 09:29:53;;;;;;;40.53;22.20;;;0.90;99.90;;;;;;2603445;54;20086;31
2021/11/29 09:32:37;;;;;;;40.45;22.75;;;0.90;99.90;;;;;;2700772;39;21500;31
2021/11/29 09:35:14;;;;;;;39.13;21.60;;;1.00;99.90;;;;;;2603435;54;20790;31
2021/11/29 09:37:51;;;;;;;39.80;21.13;;;1.00;99.90;;;;;;2603276;54;19943;31
2021/11/29 09:40:33;;;;;;;43.90;21.95;;;1.00;99.90;;;;;;2603389;54;20049;31
2021/11/29 09:43:09;;;;;;;44.30;22.20;;;1.00;99.90;;;;;;2602746;54;20037;31
2021/11/29 09:45:44;;;;;;;;;;;1.00;99.90;;;;;;2621127;46;20092;31
2021/11/29 09:48:22;;;;;;;48.53;23.90;;;1.00;99.90;;;;;;2603284;54;20741;31
2021/11/29 09:51:01;;;;;;;39.55;23.35;;;1.10;99.90;;;;;;2602676;54;20104;31
2021/11/29 09:53:40;;;;;;;45.42;23.63;;;1.00;99.90;;;;;;2602340;54;20025;31
2021/11/29 09:56:20;;;;;;;41.33;24.13;;;1.00;99.90;;;;;;2700965;39;21485;31
2021/11/29 09:58:57;;;;;;;51.23;26.03;;;1.00;99.90;;;;;;2602292;54;20930;31
2021/11/29 10:01:32;;;;;;;48.53;26.63;;;1.00;99.90;;;;;;2602954;54;20273;31
2021/11/29 10:04:27;;;;;;;55.22;25.90;;;1.00;99.90;;;;;;2621400;46;20841;31
2021/11/29 10:07:04;;;;;;;60.43;31.07;;;1.10;99.90;;;;;;2602223;54;20026;31
2021/11/29 10:09:47;;;;;;;52.50;29.50;;;1.10;99.90;;;;;;2602981;54;20601;31
2021/11/29 10:12:30;;;;;;;57.37;29.77;;;1.10;99.90;;;;;;2621028;46;21283;31
2021/11/29 10:15:21;;;;;;;59.40;31.00;;;1.10;99.90;;;;;;2621511;46;22686;31
2021/11/29 10:18:03;;;;;;;55.05;29.20;;;1.10;99.90;;;;;;2602943;54;20245;31
2021/11/29 10:21:05;;;;;;;58.60;27.33;;;1.10;99.90;;;;;;2603221;54;20861;31
2021/11/29 10:23:51;;;;;;;64.00;30.85;;;1.10;99.90;;;;;;2603056;54;20058;31
2021/11/29 10:26:27;;;;;;;56.15;28.38;;;1.00;99.90;;;;;;2603156;54;20874;31
2021/11/29 10:29:03;;;;;;;60.53;29.52;;;1.00;99.90;;;;;;2603209;54;20934;31
2021/11/29 10:31:44;;;;;;;49.97;25.60;;;1.10;99.90;;;;;;2602996;54;20876;31
2021/11/29 10:34:24;;;;;;;45.95;25.02;;;1.00;99.90;;;;;;2603219;54;20057;31
2021/11/29 10:37:06;;;;;;;38.83;22.58;;;1.00;99.90;;;;;;2603076;54;20887;31
2021/11/29 10:39:47;;;;;;;35.70;21.85;;;1.10;99.90;;;;;;2603112;54;22524;31
2021/11/29 10:42:39;;;;;;;36.17;19.30;;;1.10;99.90;;;;;;2603059;54;20911;31
2021/11/29 10:45:25;;;;;;;34.93;18.87;;;1.10;99.90;;;;;;2603197;54;20996;31
2021/11/29 10:48:02;;;;;;;28.83;16.52;;;1.10;99.90;;;;;;2602882;54;21087;31
2021/11/29 10:50:41;;;;;;;35.00;18.58;;;1.10;99.90;;;;;;2602145;54;20874;31
2021/11/29 10:53:24;;;;;;;39.80;20.80;;;1.10;99.90;;;;;;2601746;54;20030;31
2021/11/29 10:56:03;;;;;;;34.70;19.25;;;1.10;99.90;;;;;;2602254;54;20061;31
2021/11/29 10:58:45;;;;;;;38.73;20.30;;;1.10;99.90;;;;;;2701674;39;21095;31
2021/11/29 11:01:35;;;;;;;33.63;16.92;;;1.20;99.90;;;;;;2621540;46;20372;31
2021/11/29 11:04:15;;;;;;;29.83;18.08;;;1.20;99.90;;;;;;2603060;54;20038;31
2021/11/29 11:06:56;;;;;;;29.25;16.05;;;1.20;99.90;;;;;;2602653;54;20026;31
2021/11/29 11:09:35;;;;;;;28.20;15.07;;;1.10;99.90;;;;;;2621432;46;20917;31
2021/11/29 11:12:14;;;;;;;24.13;11.13;;;1.10;99.90;;;;;;2701365;39;21528;31
2021/11/29 11:14:52;;;;;;;25.57;16.53;;;1.10;99.90;;;;;;2602982;54;20754;31
2021/11/29 11:17:53;;;;;;;28.52;14.88;;;1.10;99.90;;;;;;2603057;54;20060;31
2021/11/29 11:20:36;;;;;;;29.70;16.52;;;1.10;99.90;;;;;;2602804;54;20151;31
2021/11/29 11:25:49;;;;;;;26.52;16.67;;;1.30;99.90;;;;;;2602995;54;20893;31
2021/11/29 11:28:36;;;;;;;30.42;16.63;;;1.30;99.90;;;;;;2603004;54;21225;31
2021/11/29 11:31:11;;;;;;;29.80;17.90;;;1.30;99.90;;;;;;2621346;46;20112;31
2021/11/29 11:33:57;;;;;;;29.20;16.60;;;1.40;99.90;;;;;;2602776;54;20022;31
2021/11/29 11:36:37;;;;;;;26.33;16.30;;;1.40;99.90;;;;;;2602932;54;20878;31
2021/11/29 11:41:55;;;;;;;27.63;15.10;;;1.40;99.90;;;;;;2621338;46;20030;31
2021/11/29 11:44:31;;;;;;;34.67;16.98;;;1.40;99.90;;;;;;2701147;39;21467;31
2021/11/29 11:47:07;;;;;;;27.98;16.13;;;1.50;99.90;;;;;;2602700;54;19945;31
2021/11/29 11:49:50;;;;;;;26.25;15.90;;;1.50;99.90;;;;;;2700738;39;22410;31
2021/11/29 11:52:35;;;;;;;26.20;16.23;;;1.50;99.90;;;;;;2602438;54;20944;31
2021/11/29 11:55:11;;;;;;;29.45;16.30;;;1.50;99.90;;;;;;2620519;46;20041;31
2021/11/29 12:00:55;;;;;;;29.60;17.00;;;1.60;99.90;;;;;;2602707;54;20048;31
2021/11/29 12:03:34;;;;;;;29.00;16.90;;;1.60;99.90;;;;;;2602549;54;20111;31
2021/11/29 12:06:14;;;;;;;28.25;18.00;;;1.60;99.90;;;;;;2602501;54;20837;31
2021/11/29 12:09:00;;;;;;;29.85;18.55;;;1.70;99.90;;;;;;2602521;54;20026;31
2021/11/29 12:11:39;;;;;;;35.70;20.45;;;1.60;99.90;;;;;;2602518;54;20042;31
2021/11/29 12:14:21;;;;;;;32.50;20.27;;;1.60;99.90;;;;;;2602549;54;20034;31
2021/11/29 12:17:00;;;;;;;34.50;18.30;;;1.60;99.90;;;;;;2621474;47;20152;31
2021/11/29 12:19:39;;;;;;;42.15;20.77;;;1.70;99.90;;;;;;2603379;54;20033;31
2021/11/29 12:22:31;;;;;;;;;;;1.60;99.90;;;;;;2621937;46;20030;31
2021/11/29 12:25:31;;;;;;;37.05;20.35;;;1.60;99.90;;;;;;2622068;46;20738;31
2021/11/29 12:28:12;;;;;;;40.28;21.85;;;1.60;99.90;;;;;;2608905;46;20048;31
2021/11/29 12:30:58;;;;;;;38.57;21.60;;;1.60;99.90;;;;;;2603342;54;20049;31
2021/11/29 12:33:47;;;;;;;38.65;21.35;;;1.60;99.90;;;;;;2603303;54;20034;31
2021/11/29 12:36:21;;;;;;;38.60;21.63;;;1.60;99.90;;;;;;2603369;54;20898;31
2021/11/29 12:39:10;;;;;;;38.10;19.40;;;1.70;99.90;;;;;;2603487;54;22442;31
2021/11/29 12:41:48;;;;;;;34.88;19.42;;;1.70;99.90;;;;;;2603463;54;20052;31
2021/11/29 12:44:49;;;;;;;28.23;17.30;;;1.70;99.90;;;;;;2602672;54;21885;31
2021/11/29 12:47:33;;;;;;;31.65;17.75;;;1.70;99.90;;;;;;2621966;46;20934;31
2021/11/29 12:50:09;;;;;;;31.70;18.30;;;1.70;99.90;;;;;;2621726;46;20499;31
2021/11/29 12:52:47;;;;;;;33.25;17.38;;;1.70;99.90;;;;;;2603230;54;20892;31
2021/11/29 12:55:31;;;;;;;32.88;18.65;;;1.70;99.90;;;;;;2602894;54;20034;31
2021/11/29 12:58:20;;;;;;;31.45;17.65;;;1.70;99.90;;;;;;2621590;46;20089;31
2021/11/29 13:01:12;;;;;;;35.30;18.98;;;1.60;99.90;;;;;;2603268;54;20773;31
2021/11/29 13:03:52;;;;;;;34.85;18.30;;;1.70;99.90;;;;;;2621496;46;19934;31
2021/11/29 13:06:33;;;;;;;27.05;14.63;;;1.70;99.90;;;;;;2603110;54;20904;31
2021/11/29 13:09:16;;;;;;;27.85;16.70;;;1.60;99.90;;;;;;2603390;54;21497;31
2021/11/29 13:11:50;;;;;;;30.33;16.80;;;1.60;99.90;;;;;;2603023;54;20038;31
2021/11/29 13:14:28;;;;;;;31.15;17.75;;;1.60;99.90;;;;;;2603131;54;20038;31
2021/11/29 13:17:04;;;;;;;31.63;17.33;;;1.60;99.90;;;;;;2603383;54;20026;31
2021/11/29 13:19:45;;;;;;;26.83;15.73;;;1.60;99.90;;;;;;2603106;54;20022;31
2021/11/29 13:22:19;;;;;;;28.90;16.95;;;1.60;99.90;;;;;;2603255;54;20031;31
2021/11/29 13:24:55;;;;;;;27.95;15.60;;;1.60;99.90;;;;;;2603414;54;20026;31
2021/11/29 13:27:35;;;;;;;26.47;16.03;;;1.60;99.90;;;;;;2603397;54;20756;31
2021/11/29 13:30:12;;;;;;;25.95;16.98;;;1.60;99.90;;;;;;2603178;54;20053;31
2021/11/29 13:32:46;;;;;;;30.33;17.80;;;1.70;99.90;;;;;;2603025;54;20092;31
2021/11/29 13:35:23;;;;;;;33.67;18.57;;;1.80;99.90;;;;;;2603402;54;21285;31
2021/11/29 13:37:58;;;;;;;29.30;18.17;;;1.70;99.90;;;;;;2621813;46;20246;31
2021/11/29 13:40:42;;;;;;;29.50;18.58;;;1.80;99.90;;;;;;2603282;54;20085;31
2021/11/29 13:43:25;;;;;;;30.07;18.80;;;1.70;99.90;;;;;;2603291;54;20034;31
2021/11/29 13:45:59;;;;;;;28.88;18.00;;;1.80;99.90;;;;;;2603291;54;20023;31
2021/11/29 13:48:34;;;;;;;30.00;17.55;;;1.70;99.90;;;;;;2603010;54;20027;31
2021/11/29 13:51:15;;;;;;;24.50;17.02;;;1.70;99.90;;;;;;2603201;54;20030;31
2021/11/29 13:53:52;;;;;;;31.30;18.33;;;1.70;99.90;;;;;;2603022;54;20046;31
2021/11/29 13:56:27;;;;;;;28.60;17.30;;;1.70;99.90;;;;;;2701434;39;20472;31
2021/11/29 13:59:03;;;;;;;26.67;17.70;;;1.70;99.90;;;;;;2621623;46;20030;31
2021/11/29 14:01:41;;;;;;;33.57;18.20;;;1.70;99.90;;;;;;2603167;54;20026;31
2021/11/29 14:04:27;;;;;;;29.80;18.42;;;1.60;99.90;;;;;;2621531;46;20029;31
2021/11/29 14:07:21;;;;;;;30.48;17.58;;;1.60;99.90;;;;;;2603199;54;20022;31
2021/11/29 14:09:57;;;;;;;32.35;18.52;;;1.60;99.90;;;;;;2603089;54;20034;31
2021/11/29 14:12:50;;;;;;;32.65;20.50;;;1.60;99.90;;;;;;2701439;39;20431;31
2021/11/29 14:15:31;;;;;;;32.42;19.42;;;1.60;99.90;;;;;;2621392;46;20023;31
2021/11/29 14:18:06;;;;;;;33.50;19.45;;;1.60;99.90;;;;;;2603303;54;20030;31
2021/11/29 14:20:42;;;;;;;36.90;19.37;;;1.50;99.90;;;;;;2608152;46;20089;31